Time;durP1;ratioP1;P1;durP2;ratioP2;P2;SDS_P1;SDS_P2;PMS_P1;PMS_P2;Temp;Humidity;BMP_temperature;BMP_pressure;BME280_temperature;BME280_humidity;BME280_pressure;Samples;Min_cycle;Max_cycle;Signal;HPM_P1;HPM_P2
2022/05/31 00:01:50;;;;;;;3.65;1.20;;;10.80;97.30;;;;;;5053923;28;20415;-85
2022/05/31 00:04:15;;;;;;;3.30;1.33;;;10.80;97.40;;;;;;5053685;28;20047;-86
2022/05/31 00:06:42;;;;;;;3.33;1.10;;;10.80;97.50;;;;;;5054104;28;20029;-86
2022/05/31 00:09:08;;;;;;;2.47;1.15;;;10.80;97.60;;;;;;5052900;28;20450;-86
2022/05/31 00:11:36;;;;;;;5.82;1.40;;;10.70;97.60;;;;;;5053556;28;20122;-88
2022/05/31 00:14:03;;;;;;;3.22;1.38;;;10.70;97.60;;;;;;5052936;28;20363;-86
2022/05/31 00:16:29;;;;;;;3.67;1.30;;;10.60;97.60;;;;;;5053912;28;20040;-86
2022/05/31 00:18:54;;;;;;;2.83;1.15;;;10.60;97.70;;;;;;5054031;28;20363;-87
2022/05/31 00:21:22;;;;;;;7.20;1.35;;;10.50;97.80;;;;;;5053361;28;20017;-85
2022/05/31 00:23:48;;;;;;;2.88;1.20;;;10.50;97.90;;;;;;5053920;28;20025;-86
2022/05/31 00:26:13;;;;;;;4.57;1.73;;;10.50;98.00;;;;;;5053847;28;20051;-85
2022/05/31 00:28:39;;;;;;;4.20;1.23;;;10.50;97.90;;;;;;5053731;28;20039;-85
2022/05/31 00:31:08;;;;;;;2.20;1.20;;;10.50;98.00;;;;;;5053771;28;20036;-85
2022/05/31 00:33:34;;;;;;;5.25;1.50;;;10.50;98.30;;;;;;5054335;28;20024;-86
2022/05/31 00:36:00;;;;;;;4.63;1.58;;;10.40;98.10;;;;;;5053130;28;20108;-87
2022/05/31 00:38:26;;;;;;;5.22;1.35;;;10.40;98.10;;;;;;5054130;28;20037;-87
2022/05/31 00:40:51;;;;;;;2.58;1.30;;;10.40;98.10;;;;;;5054070;28;20059;-86
2022/05/31 00:43:22;;;;;;;4.32;1.40;;;10.30;98.10;;;;;;5052640;28;20027;-89
2022/05/31 00:46:08;;;;;;;5.13;1.40;;;10.30;98.20;;;;;;5053414;28;20048;-87
2022/05/31 00:48:43;;;;;;;5.45;1.40;;;10.40;98.20;;;;;;5053632;28;20683;-86
2022/05/31 00:51:14;;;;;;;4.47;1.77;;;10.40;98.20;;;;;;5053713;28;20025;-86
2022/05/31 00:53:46;;;;;;;4.60;1.52;;;10.40;98.00;;;;;;5052472;28;20115;-87
2022/05/31 00:56:24;;;;;;;3.10;1.15;;;10.30;97.90;;;;;;5053576;28;20029;-86
2022/05/31 00:59:16;;;;;;;1.48;1.10;;;10.30;98.00;;;;;;5053753;28;20467;-85
2022/05/31 01:01:43;;;;;;;3.20;1.80;;;10.30;98.00;;;;;;5048816;28;20029;-84
2022/05/31 01:04:10;;;;;;;3.22;1.50;;;10.30;98.00;;;;;;5053064;28;20079;-85
2022/05/31 01:06:36;;;;;;;5.30;1.25;;;10.20;98.00;;;;;;5052285;28;20025;-85
2022/05/31 01:09:03;;;;;;;5.55;1.60;;;10.20;98.10;;;;;;5053369;28;20033;-85
2022/05/31 01:11:32;;;;;;;5.63;1.40;;;10.20;98.10;;;;;;5052928;28;20662;-84
2022/05/31 01:13:58;;;;;;;6.32;1.65;;;10.20;98.20;;;;;;5052880;28;20037;-86
2022/05/31 01:16:24;;;;;;;5.38;1.80;;;10.20;98.30;;;;;;5053054;28;20466;-86
2022/05/31 01:18:50;;;;;;;3.78;1.45;;;10.20;98.20;;;;;;5052812;28;20120;-87
2022/05/31 01:21:15;;;;;;;3.90;1.45;;;10.20;98.20;;;;;;5053915;28;20021;-87
2022/05/31 01:24:00;;;;;;;2.20;1.38;;;10.20;98.10;;;;;;5054310;28;20443;-84
2022/05/31 01:26:51;;;;;;;2.55;1.48;;;10.10;98.30;;;;;;5061005;28;20025;-87
2022/05/31 01:29:27;;;;;;;11.75;1.45;;;10.00;98.20;;;;;;5065458;28;20032;-86
2022/05/31 01:31:58;;;;;;;5.40;1.52;;;10.00;98.30;;;;;;5053340;28;20366;-86
2022/05/31 01:34:33;;;;;;;5.93;1.40;;;10.00;98.30;;;;;;5052879;28;20037;-85
2022/05/31 01:36:58;;;;;;;6.90;1.42;;;10.00;98.40;;;;;;5052960;28;20041;-87
2022/05/31 01:39:56;;;;;;;5.93;1.50;;;10.00;98.40;;;;;;5053396;28;20036;-86
2022/05/31 01:42:35;;;;;;;4.03;1.35;;;9.90;98.80;;;;;;5052400;28;20068;-86
2022/05/31 01:45:09;;;;;;;5.25;1.90;;;10.00;98.40;;;;;;5052693;28;20474;-88
2022/05/31 01:47:36;;;;;;;6.85;1.70;;;10.00;98.30;;;;;;5052163;28;20041;-88
2022/05/31 01:50:05;;;;;;;3.47;1.38;;;10.00;98.30;;;;;;5050678;28;20063;-87
2022/05/31 01:52:32;;;;;;;3.30;1.30;;;10.00;98.40;;;;;;5046156;28;20025;-87
2022/05/31 01:54:58;;;;;;;2.85;1.25;;;10.00;98.30;;;;;;5031302;28;20117;-86
2022/05/31 01:57:26;;;;;;;3.13;1.20;;;10.10;98.30;;;;;;5031711;28;20096;-86
2022/05/31 01:59:56;;;;;;;3.13;1.37;;;10.00;98.20;;;;;;5032209;28;20029;-88
2022/05/31 02:02:22;;;;;;;4.38;1.80;;;10.00;98.30;;;;;;5032259;28;20036;-86
2022/05/31 02:04:48;;;;;;;3.15;1.17;;;10.00;98.40;;;;;;5031964;28;20084;-86
2022/05/31 02:07:19;;;;;;;5.63;1.30;;;10.00;98.50;;;;;;5031948;28;20034;-87
2022/05/31 02:09:47;;;;;;;2.60;1.40;;;10.00;98.50;;;;;;5032515;28;20125;-88
2022/05/31 02:12:14;;;;;;;3.17;1.40;;;10.00;98.40;;;;;;5032415;28;20056;-88
2022/05/31 02:14:40;;;;;;;4.22;1.80;;;9.90;98.90;;;;;;5032666;28;20127;-87
2022/05/31 02:17:06;;;;;;;4.13;1.45;;;9.90;98.80;;;;;;5032670;28;20091;-87
2022/05/31 02:19:33;;;;;;;3.20;1.50;;;9.90;98.90;;;;;;5032164;28;20431;-86
2022/05/31 02:22:02;;;;;;;2.80;1.10;;;9.90;98.90;;;;;;5032043;28;20443;-85
2022/05/31 02:24:28;;;;;;;4.88;1.55;;;9.90;99.00;;;;;;5031212;28;20335;-85
2022/05/31 02:26:54;;;;;;;3.85;1.80;;;10.00;98.40;;;;;;5031549;28;20025;-86
2022/05/31 02:29:26;;;;;;;5.18;1.33;;;9.90;98.90;;;;;;5031666;28;20021;-86
2022/05/31 02:31:52;;;;;;;4.82;1.27;;;10.00;98.50;;;;;;5031242;28;20044;-86
2022/05/31 02:34:22;;;;;;;2.55;1.15;;;10.00;98.60;;;;;;5031496;28;20116;-86
2022/05/31 02:36:48;;;;;;;6.90;1.60;;;9.90;99.00;;;;;;5031348;28;20367;-85
2022/05/31 02:39:14;;;;;;;4.38;1.58;;;9.80;99.10;;;;;;5032081;28;20043;-87
2022/05/31 02:41:40;;;;;;;5.38;1.55;;;9.80;99.10;;;;;;5031376;28;20046;-85
2022/05/31 02:44:06;;;;;;;2.67;1.33;;;9.80;99.10;;;;;;5031180;28;20136;-85
2022/05/31 02:46:33;;;;;;;6.80;1.77;;;9.80;99.20;;;;;;5031395;28;20105;-86
2022/05/31 02:48:59;;;;;;;4.82;2.03;;;9.80;99.10;;;;;;5031644;28;20112;-86
2022/05/31 02:51:26;;;;;;;3.40;1.38;;;9.80;99.10;;;;;;5032014;28;20107;-86
2022/05/31 02:53:53;;;;;;;3.83;1.30;;;9.70;99.00;;;;;;5030360;28;20028;-86
2022/05/31 02:56:19;;;;;;;6.00;1.42;;;9.70;99.10;;;;;;5030165;28;20448;-85
2022/05/31 02:58:45;;;;;;;3.20;1.52;;;9.80;99.10;;;;;;5031460;28;20032;-86
2022/05/31 03:01:19;;;;;;;4.25;1.13;;;9.80;99.10;;;;;;5031158;28;20021;-85
2022/05/31 03:03:45;;;;;;;4.57;1.50;;;9.80;99.10;;;;;;5030581;28;20479;-86
2022/05/31 03:06:10;;;;;;;4.22;1.55;;;9.80;99.20;;;;;;5051992;28;20040;-86
2022/05/31 03:08:37;;;;;;;6.65;1.67;;;9.80;99.00;;;;;;5036119;28;20045;-86
2022/05/31 03:11:09;;;;;;;6.43;1.60;;;9.80;99.00;;;;;;5031430;28;20048;-86
2022/05/31 03:13:34;;;;;;;3.90;1.60;;;9.70;99.10;;;;;;5030951;28;20037;-86
2022/05/31 03:16:02;;;;;;;7.72;1.90;;;9.70;99.00;;;;;;5031141;28;20227;-87
2022/05/31 03:18:34;;;;;;;8.15;1.27;;;9.70;99.10;;;;;;5030510;28;20083;-87
2022/05/31 03:21:08;;;;;;;4.60;1.65;;;9.70;99.10;;;;;;5031215;28;20396;-87
2022/05/31 03:23:39;;;;;;;6.70;1.67;;;9.70;99.10;;;;;;5031521;28;20044;-86
2022/05/31 03:26:08;;;;;;;5.25;1.65;;;9.60;99.20;;;;;;5030374;28;20390;-86
2022/05/31 03:28:35;;;;;;;3.10;1.48;;;9.70;99.20;;;;;;5031768;28;20457;-86
2022/05/31 03:31:05;;;;;;;10.87;2.00;;;9.70;99.20;;;;;;5030812;28;20025;-87
2022/05/31 03:33:32;;;;;;;3.95;1.70;;;9.70;99.20;;;;;;5031774;28;20356;-86
2022/05/31 03:35:58;;;;;;;1.67;1.38;;;9.80;99.20;;;;;;5031317;28;20183;-85
2022/05/31 03:38:24;;;;;;;7.53;2.00;;;9.70;99.10;;;;;;5030908;28;20113;-87
2022/05/31 03:40:58;;;;;;;5.57;1.70;;;9.80;99.10;;;;;;5031248;28;20084;-87
2022/05/31 03:43:43;;;;;;;4.93;1.73;;;9.80;99.10;;;;;;5034030;28;20455;-87
2022/05/31 03:46:13;;;;;;;7.07;1.95;;;9.80;99.10;;;;;;5034755;28;20390;-87
2022/05/31 03:48:38;;;;;;;3.90;1.60;;;9.70;99.00;;;;;;5035184;28;20025;-87
2022/05/31 03:51:10;;;;;;;4.88;1.73;;;9.70;99.00;;;;;;5034964;28;20025;-87
2022/05/31 03:53:37;;;;;;;3.00;1.60;;;9.70;99.10;;;;;;5034768;28;20033;-87
2022/05/31 03:56:09;;;;;;;4.95;1.58;;;9.80;99.20;;;;;;5034990;28;20410;-86
2022/05/31 03:58:34;;;;;;;4.90;1.70;;;9.80;99.10;;;;;;5034577;28;20035;-87
2022/05/31 04:01:00;;;;;;;5.78;1.40;;;9.80;99.00;;;;;;5034751;28;20104;-87
2022/05/31 04:03:26;;;;;;;2.95;1.77;;;9.70;99.00;;;;;;5035300;28;20234;-86
2022/05/31 04:05:54;;;;;;;7.38;1.65;;;9.70;99.30;;;;;;5035350;28;20088;-87
2022/05/31 04:08:22;;;;;;;8.77;1.75;;;9.80;99.10;;;;;;5035165;28;20414;-87
2022/05/31 04:10:48;;;;;;;3.35;1.70;;;9.80;99.10;;;;;;5034051;28;20026;-87
2022/05/31 04:13:15;;;;;;;8.65;1.85;;;9.80;99.20;;;;;;5034824;28;20107;-88
2022/05/31 04:15:41;;;;;;;6.13;1.52;;;9.80;99.10;;;;;;5034747;28;20045;-87
2022/05/31 04:18:08;;;;;;;3.25;1.88;;;9.80;99.20;;;;;;5033948;28;20036;-86
2022/05/31 04:20:37;;;;;;;6.05;1.65;;;9.90;99.20;;;;;;5032746;28;20037;-87
2022/05/31 04:25:48;;;;;;;6.00;1.60;;;10.00;98.50;;;;;;5034896;28;20091;-86
2022/05/31 04:28:15;;;;;;;4.35;1.55;;;10.00;98.60;;;;;;5034290;28;20113;-87
2022/05/31 04:30:44;;;;;;;3.28;1.60;;;9.90;99.10;;;;;;5035153;28;20025;-87
2022/05/31 04:33:11;;;;;;;4.72;1.70;;;10.00;98.60;;;;;;5033798;28;20040;-86
2022/05/31 04:35:36;;;;;;;6.38;2.35;;;10.00;98.50;;;;;;5034433;28;20029;-87
2022/05/31 04:38:03;;;;;;;7.00;1.75;;;10.00;98.40;;;;;;5033000;28;20030;-87
2022/05/31 04:40:29;;;;;;;3.63;1.73;;;10.00;98.60;;;;;;5033213;28;20030;-86
2022/05/31 04:42:54;;;;;;;4.07;2.00;;;10.10;98.70;;;;;;5033853;28;20048;-85
2022/05/31 04:45:20;;;;;;;8.30;1.95;;;10.20;98.60;;;;;;5034687;28;20155;-87
2022/05/31 04:47:47;;;;;;;3.47;1.60;;;10.30;98.60;;;;;;5034111;28;20116;-86
2022/05/31 04:50:13;;;;;;;6.03;1.95;;;10.30;98.50;;;;;;5035766;28;20048;-87
2022/05/31 04:52:38;;;;;;;5.55;1.58;;;10.40;98.40;;;;;;5039089;28;20033;-87
2022/05/31 04:55:04;;;;;;;4.22;1.60;;;10.40;98.40;;;;;;5039564;28;20044;-86
2022/05/31 04:57:30;;;;;;;5.35;1.90;;;10.50;98.30;;;;;;5042013;28;20033;-87
2022/05/31 04:59:56;;;;;;;2.97;1.67;;;10.60;98.20;;;;;;5039082;28;20060;-88
2022/05/31 05:02:21;;;;;;;4.10;1.90;;;10.60;98.00;;;;;;5033917;28;20359;-85
2022/05/31 05:04:47;;;;;;;4.75;1.60;;;10.70;97.90;;;;;;5033568;28;20430;-86
2022/05/31 05:07:12;;;;;;;5.22;1.70;;;10.80;97.80;;;;;;5033833;28;20040;-87
2022/05/31 05:09:38;;;;;;;5.32;1.70;;;11.00;97.70;;;;;;5034266;28;20036;-87
2022/05/31 05:12:04;;;;;;;4.43;1.60;;;11.00;97.40;;;;;;5033464;28;20067;-85
2022/05/31 05:14:30;;;;;;;3.30;1.75;;;11.20;97.40;;;;;;5033303;28;20030;-85
2022/05/31 05:16:56;;;;;;;3.72;1.63;;;11.30;97.40;;;;;;5033525;28;20044;-86
2022/05/31 05:19:21;;;;;;;7.05;2.10;;;11.40;97.40;;;;;;5032871;28;20124;-85
2022/05/31 05:21:47;;;;;;;4.60;1.92;;;11.60;97.30;;;;;;5032446;28;20099;-84
2022/05/31 05:24:12;;;;;;;4.20;1.55;;;11.70;97.00;;;;;;5033338;28;20386;-86
2022/05/31 05:26:38;;;;;;;4.45;1.90;;;11.80;96.70;;;;;;5032575;28;20084;-84
2022/05/31 05:31:52;;;;;;;5.47;1.40;;;11.90;96.30;;;;;;5032505;28;20087;-87
2022/05/31 05:34:18;;;;;;;4.00;1.70;;;12.00;96.10;;;;;;5032705;28;20509;-86
2022/05/31 05:36:45;;;;;;;8.05;1.92;;;12.00;95.90;;;;;;5032008;28;20309;-87
2022/05/31 05:39:11;;;;;;;6.88;1.38;;;12.00;95.90;;;;;;5052322;28;20119;-86
2022/05/31 05:41:39;;;;;;;5.45;1.52;;;11.90;95.70;;;;;;5052034;28;20152;-86
2022/05/31 05:44:05;;;;;;;6.28;1.60;;;12.00;95.60;;;;;;5048788;28;20056;-86
2022/05/31 05:46:31;;;;;;;5.13;1.45;;;12.20;95.60;;;;;;5047703;28;20417;-85
2022/05/31 05:48:57;;;;;;;6.57;1.45;;;12.40;95.40;;;;;;5032246;28;20538;-85
2022/05/31 05:51:26;;;;;;;9.90;3.50;;;12.80;95.00;;;;;;5032803;28;20131;-86
2022/05/31 05:53:52;;;;;;;8.55;1.88;;;13.00;94.80;;;;;;5027536;28;20372;-80
2022/05/31 05:56:19;;;;;;;4.13;1.25;;;13.10;94.30;;;;;;5024889;28;20459;-84
2022/05/31 05:58:46;;;;;;;3.22;1.15;;;13.00;94.10;;;;;;5024349;28;20470;-83
2022/05/31 06:01:14;;;;;;;4.22;1.50;;;13.00;93.80;;;;;;5012136;28;20095;-85
2022/05/31 06:03:43;;;;;;;8.27;3.45;;;13.00;94.00;;;;;;5011626;28;20030;-85
2022/05/31 06:06:11;;;;;;;2.88;1.30;;;13.10;93.60;;;;;;5011738;28;20030;-82
2022/05/31 06:08:42;;;;;;;7.35;2.25;;;13.20;93.40;;;;;;5011287;28;20030;-81
2022/05/31 06:11:22;;;;;;;3.65;1.33;;;13.30;93.10;;;;;;5010477;28;20452;-81
2022/05/31 06:13:55;;;;;;;6.82;1.30;;;13.40;92.70;;;;;;5011952;28;20064;-84
2022/05/31 06:16:24;;;;;;;4.70;1.65;;;13.40;93.10;;;;;;5012115;28;20368;-80
2022/05/31 06:18:54;;;;;;;5.32;1.90;;;13.50;92.80;;;;;;5012046;28;20329;-82
2022/05/31 06:21:22;;;;;;;7.25;2.47;;;13.70;92.50;;;;;;5011713;28;20014;-81
2022/05/31 06:23:49;;;;;;;13.88;1.48;;;13.80;92.40;;;;;;5010850;28;20029;-79
2022/05/31 06:26:18;;;;;;;8.15;1.83;;;13.90;92.20;;;;;;5011045;28;20046;-80
2022/05/31 06:28:45;;;;;;;6.15;1.50;;;14.00;92.50;;;;;;5009935;28;20026;-78
2022/05/31 06:31:10;;;;;;;4.57;0.95;;;13.90;91.50;;;;;;5011110;28;20030;-78
2022/05/31 06:33:36;;;;;;;5.95;1.50;;;14.00;91.50;;;;;;5011573;28;20036;-82
2022/05/31 06:36:07;;;;;;;9.35;1.65;;;14.00;91.10;;;;;;5011236;28;20034;-79
2022/05/31 06:38:33;;;;;;;7.45;1.45;;;13.90;91.10;;;;;;5010125;28;20045;-81
2022/05/31 06:40:59;;;;;;;7.10;0.98;;;13.80;90.90;;;;;;5009909;28;20065;-78
2022/05/31 06:43:24;;;;;;;3.85;1.42;;;13.90;91.20;;;;;;5011428;28;20026;-81
2022/05/31 06:45:50;;;;;;;8.80;1.70;;;13.80;91.00;;;;;;5011412;28;20131;-81
2022/05/31 06:48:16;;;;;;;3.05;1.10;;;13.80;91.30;;;;;;5011550;28;20047;-80
2022/05/31 06:50:42;;;;;;;4.38;0.93;;;13.90;91.10;;;;;;5009718;28;20030;-80
2022/05/31 06:59:01;;;;;;;2.78;0.93;;;14.40;90.60;;;;;;5018831;28;20017;-82
2022/05/31 07:01:37;;;;;;;4.20;1.25;;;14.60;89.70;;;;;;5025518;28;20041;-82
2022/05/31 07:04:03;;;;;;;5.22;0.90;;;14.70;88.60;;;;;;5011284;28;20025;-82
2022/05/31 07:06:30;;;;;;;2.63;0.90;;;14.80;89.40;;;;;;5011279;28;20030;-83
2022/05/31 07:08:56;;;;;;;2.53;0.93;;;14.80;87.40;;;;;;5011204;28;20034;-78
2022/05/31 07:11:22;;;;;;;7.97;1.60;;;14.90;87.00;;;;;;5011140;28;20045;-83
2022/05/31 07:13:48;;;;;;;4.57;1.00;;;15.20;87.50;;;;;;5012366;28;20482;-84
2022/05/31 07:16:14;;;;;;;2.50;0.73;;;15.40;86.40;;;;;;5011949;28;20372;-81
2022/05/31 07:18:40;;;;;;;5.28;1.10;;;15.60;85.50;;;;;;5014450;28;20567;-80
2022/05/31 07:21:05;;;;;;;5.72;1.33;;;15.80;85.10;;;;;;5014310;28;20041;-82
2022/05/31 07:23:31;;;;;;;3.20;0.70;;;15.80;83.10;;;;;;5015054;28;20057;-84
2022/05/31 07:25:58;;;;;;;3.80;0.85;;;15.70;84.00;;;;;;5014709;28;20036;-81
2022/05/31 07:28:26;;;;;;;4.47;1.52;;;15.80;83.50;;;;;;5014700;28;20040;-81
2022/05/31 07:30:52;;;;;;;6.30;0.73;;;15.80;82.70;;;;;;5014529;28;20446;-80
2022/05/31 07:33:17;;;;;;;0.98;0.52;;;15.90;82.60;;;;;;5014827;28;20428;-83
2022/05/31 07:35:43;;;;;;;2.25;0.70;;;16.00;82.10;;;;;;5014238;28;20037;-80
2022/05/31 07:38:09;;;;;;;1.77;0.77;;;16.10;82.00;;;;;;5014915;28;20340;-85
2022/05/31 07:40:35;;;;;;;2.00;0.85;;;16.40;83.50;;;;;;5016339;28;20053;-84
2022/05/31 07:43:01;;;;;;;2.47;0.52;;;16.50;80.00;;;;;;5014492;28;20084;-81
2022/05/31 07:45:28;;;;;;;1.48;0.52;;;16.80;80.60;;;;;;5014551;28;20029;-81
2022/05/31 07:47:53;;;;;;;5.55;1.40;;;17.10;77.80;;;;;;5014110;28;20072;-78
2022/05/31 07:50:20;;;;;;;5.25;0.75;;;17.30;78.50;;;;;;5013605;28;20080;-80
2022/05/31 07:52:45;;;;;;;6.25;2.83;;;17.50;77.90;;;;;;5013807;28;20460;-80
2022/05/31 07:55:11;;;;;;;5.68;1.02;;;17.70;75.50;;;;;;5012769;28;20168;-84
2022/05/31 08:00:22;;;;;;;1.05;0.43;;;17.60;73.10;;;;;;5014280;28;20061;-84
2022/05/31 08:02:48;;;;;;;1.90;0.57;;;17.70;73.10;;;;;;5029178;28;20034;-84
2022/05/31 08:05:14;;;;;;;1.63;0.82;;;18.10;74.50;;;;;;5014370;28;20042;-83
2022/05/31 08:07:40;;;;;;;2.90;0.75;;;18.70;75.50;;;;;;5013372;28;20037;-84
2022/05/31 08:10:08;;;;;;;6.80;3.33;;;19.20;73.30;;;;;;5014020;28;20041;-86
2022/05/31 08:12:33;;;;;;;5.93;0.95;;;19.80;71.50;;;;;;5014350;28;20034;-80
2022/05/31 08:15:00;;;;;;;2.50;0.55;;;20.30;68.10;;;;;;5013833;28;20478;-81
2022/05/31 08:17:26;;;;;;;3.40;1.08;;;21.30;67.70;;;;;;5013536;28;20030;-78
2022/05/31 08:19:54;;;;;;;3.67;0.70;;;22.00;67.80;;;;;;5028709;28;20113;-74
2022/05/31 08:22:20;;;;;;;1.50;0.70;;;22.80;61.00;;;;;;5013058;28;20026;-78
2022/05/31 08:24:46;;;;;;;2.42;0.57;;;23.00;59.30;;;;;;5013478;28;20049;-78
2022/05/31 08:27:13;;;;;;;5.65;0.82;;;23.80;60.80;;;;;;5021311;28;20030;-82
2022/05/31 08:29:39;;;;;;;1.45;0.50;;;24.20;57.80;;;;;;5015383;28;20045;-79
2022/05/31 08:32:06;;;;;;;6.38;0.82;;;24.50;57.20;;;;;;5013369;28;20060;-76
2022/05/31 08:34:32;;;;;;;2.15;0.88;;;24.80;55.40;;;;;;5011516;28;20097;-76
2022/05/31 08:36:58;;;;;;;1.30;0.70;;;25.50;54.40;;;;;;5012974;28;20504;-81
2022/05/31 08:39:24;;;;;;;1.08;0.63;;;25.50;54.40;;;;;;5013183;28;20530;-80
2022/05/31 08:41:55;;;;;;;2.35;0.57;;;26.00;52.60;;;;;;5012821;28;20042;-78
2022/05/31 08:44:45;;;;;;;1.65;0.63;;;26.70;48.90;;;;;;5012877;28;20068;-81
2022/05/31 08:47:42;;;;;;;3.40;0.88;;;26.70;49.00;;;;;;5013667;28;20056;-78
2022/05/31 08:53:26;;;;;;;4.05;0.73;;;26.80;49.30;;;;;;5012313;28;20095;-79
2022/05/31 08:59:13;;;;;;;1.58;0.75;;;26.80;47.20;;;;;;5012719;28;20045;-79
2022/05/31 09:01:53;;;;;;;2.58;0.77;;;26.10;46.20;;;;;;5012495;28;20045;-78
2022/05/31 09:04:27;;;;;;;1.73;0.60;;;26.40;46.80;;;;;;5011717;28;20038;-77
2022/05/31 09:07:10;;;;;;;6.25;0.70;;;26.60;46.70;;;;;;5014165;28;20036;-76
2022/05/31 09:09:44;;;;;;;3.47;0.90;;;27.30;44.30;;;;;;5028815;28;20462;-78
2022/05/31 09:12:21;;;;;;;2.28;0.68;;;27.20;42.20;;;;;;5012665;28;20049;-85
2022/05/31 09:14:56;;;;;;;3.72;0.98;;;27.10;41.20;;;;;;5013090;28;20143;-84
2022/05/31 09:17:52;;;;;;;3.40;0.75;;;27.00;43.00;;;;;;5013723;28;20099;-80
2022/05/31 09:20:51;;;;;;;2.80;0.85;;;26.80;43.20;;;;;;5011978;28;20044;-80
2022/05/31 09:23:29;;;;;;;2.28;0.90;;;27.30;42.70;;;;;;5013193;28;20069;-80
2022/05/31 09:26:12;;;;;;;3.28;1.27;;;27.20;41.00;;;;;;5012603;28;20030;-87
2022/05/31 09:29:03;;;;;;;3.15;1.02;;;26.80;42.60;;;;;;5013751;28;20423;-87
2022/05/31 09:31:53;;;;;;;3.05;1.30;;;26.90;42.60;;;;;;5012405;28;20034;-78
2022/05/31 09:34:44;;;;;;;2.72;1.00;;;26.40;42.00;;;;;;5010823;28;20045;-82
2022/05/31 09:37:48;;;;;;;4.05;1.67;;;25.20;43.10;;;;;;5013884;28;20060;-77
2022/05/31 09:40:35;;;;;;;4.25;0.95;;;24.50;44.30;;;;;;5012003;28;20125;-81
2022/05/31 09:43:16;;;;;;;2.90;1.05;;;24.10;42.50;;;;;;5011172;28;20038;-76
2022/05/31 09:46:05;;;;;;;1.90;1.10;;;23.70;42.70;;;;;;5027331;28;20464;-79
2022/05/31 09:48:31;;;;;;;2.05;1.38;;;23.50;43.70;;;;;;5011642;28;20171;-79
2022/05/31 09:51:20;;;;;;;5.00;1.00;;;23.30;42.70;;;;;;5012497;28;20138;-79
2022/05/31 09:59:24;;;;;;;1.80;0.90;;;22.60;46.30;;;;;;5011709;28;20289;-82
2022/05/31 10:01:50;;;;;;;0.80;0.80;;;22.80;45.80;;;;;;5011440;28;20026;-79
2022/05/31 10:04:30;;;;;;;3.10;1.13;;;22.60;46.40;;;;;;5011481;28;20102;-80
2022/05/31 10:07:01;;;;;;;6.38;3.13;;;22.50;45.10;;;;;;5011843;28;20026;-80
2022/05/31 10:09:43;;;;;;;3.88;1.17;;;22.30;45.30;;;;;;5012151;28;20109;-84
2022/05/31 10:12:31;;;;;;;1.80;0.90;;;22.00;45.10;;;;;;5011561;28;20104;-79
2022/05/31 10:15:03;;;;;;;5.93;2.38;;;22.00;46.30;;;;;;5010367;28;20056;-80
2022/05/31 10:17:28;;;;;;;9.15;2.58;;;22.20;45.90;;;;;;5011387;28;20049;-83
2022/05/31 10:20:09;;;;;;;6.05;3.00;;;22.30;45.90;;;;;;5011707;28;20088;-83
2022/05/31 10:22:35;;;;;;;4.22;1.92;;;22.50;45.90;;;;;;5011557;28;20037;-84
2022/05/31 10:25:23;;;;;;;4.90;2.25;;;22.70;46.10;;;;;;5011551;28;20018;-85
2022/05/31 10:28:03;;;;;;;3.08;1.50;;;22.40;45.20;;;;;;5011408;28;20105;-76
2022/05/31 10:30:30;;;;;;;4.53;1.23;;;22.30;44.80;;;;;;5010914;28;20026;-76
2022/05/31 10:33:04;;;;;;;2.53;1.00;;;22.50;45.50;;;;;;5010288;28;20274;-74
2022/05/31 10:35:37;;;;;;;5.72;1.30;;;22.60;45.40;;;;;;5010568;28;20456;-78
2022/05/31 10:38:17;;;;;;;8.27;1.55;;;22.30;46.50;;;;;;5010500;28;20042;-77
2022/05/31 10:41:00;;;;;;;10.85;1.38;;;22.20;47.20;;;;;;5010560;28;20034;-81
2022/05/31 10:43:34;;;;;;;2.85;1.00;;;22.20;47.60;;;;;;5011165;28;20034;-81
2022/05/31 10:46:26;;;;;;;14.73;8.57;;;22.20;46.40;;;;;;5011215;28;20022;-82
2022/05/31 10:48:55;;;;;;;5.60;2.00;;;22.40;46.60;;;;;;5011160;28;20440;-78
2022/05/31 10:51:53;;;;;;;7.55;1.60;;;22.30;47.00;;;;;;5012606;28;20045;-85
2022/05/31 10:54:21;;;;;;;;;;;22.60;46.70;;;;;;5013692;28;20041;-75
2022/05/31 10:57:12;;;;;;;3.97;1.38;;;22.60;46.70;;;;;;5014750;28;19924;-77
2022/05/31 11:00:01;;;;;;;2.50;1.00;;;22.50;45.50;;;;;;5013386;28;20580;-79
2022/05/31 11:02:48;;;;;;;6.00;1.88;;;22.40;45.50;;;;;;5014631;28;20038;-81
2022/05/31 11:05:16;;;;;;;2.22;1.20;;;22.20;45.70;;;;;;5015238;28;20057;-84
2022/05/31 11:11:28;;;;;;;2.05;1.20;;;22.20;44.70;;;;;;5014709;28;20438;-82
2022/05/31 11:14:12;;;;;;;3.70;1.70;;;22.20;44.80;;;;;;5014654;28;20034;-79
2022/05/31 11:17:00;;;;;;;6.80;1.48;;;22.40;44.80;;;;;;5014812;28;20081;-81
2022/05/31 11:19:44;;;;;;;3.75;1.42;;;22.50;44.60;;;;;;5014132;28;20100;-79
2022/05/31 11:22:31;;;;;;;8.93;3.88;;;22.60;44.60;;;;;;5007982;28;20028;-83
2022/05/31 11:25:34;;;;;;;1.87;1.33;;;22.50;44.10;;;;;;5024462;28;20136;-79
2022/05/31 11:28:09;;;;;;;3.42;1.58;;;22.20;44.10;;;;;;5014545;28;20285;-83
2022/05/31 11:30:41;;;;;;;6.30;1.33;;;22.10;44.20;;;;;;5014867;28;20033;-81
2022/05/31 11:33:21;;;;;;;3.55;1.27;;;22.20;45.40;;;;;;5014352;28;20026;-84
2022/05/31 11:36:08;;;;;;;5.93;1.02;;;22.10;44.60;;;;;;5030473;28;20038;-83
2022/05/31 11:39:18;;;;;;;2.20;1.10;;;22.20;44.50;;;;;;5014246;28;20128;-81
2022/05/31 11:41:53;;;;;;;3.40;1.20;;;22.20;44.40;;;;;;5013303;28;20050;-78
2022/05/31 11:44:54;;;;;;;3.30;1.35;;;22.40;44.50;;;;;;5013768;28;20049;-80
2022/05/31 11:47:38;;;;;;;2.22;1.20;;;22.40;44.30;;;;;;5014268;28;20095;-78
2022/05/31 11:50:10;;;;;;;10.80;5.25;;;22.20;44.90;;;;;;5012828;28;20037;-79
2022/05/31 11:53:04;;;;;;;3.22;1.70;;;22.30;44.20;;;;;;5013880;28;20044;-77
2022/05/31 11:55:35;;;;;;;3.85;1.27;;;22.20;45.10;;;;;;4996749;28;20073;-80
2022/05/31 11:58:07;;;;;;;6.68;1.27;;;22.30;45.70;;;;;;5014188;28;20022;-79
2022/05/31 12:00:47;;;;;;;1.98;1.00;;;22.30;45.30;;;;;;5015449;28;20026;-82
2022/05/31 12:03:19;;;;;;;4.32;1.30;;;22.00;44.70;;;;;;5013111;28;20427;-77
2022/05/31 12:05:50;;;;;;;4.18;1.15;;;21.90;45.20;;;;;;5013257;28;20380;-76
2022/05/31 12:08:29;;;;;;;2.88;1.42;;;21.80;45.30;;;;;;5013204;28;20057;-77
2022/05/31 12:11:01;;;;;;;4.13;1.50;;;21.70;45.00;;;;;;5013675;28;20512;-80
2022/05/31 12:13:27;;;;;;;2.50;0.98;;;21.60;45.00;;;;;;5029187;28;20030;-84
2022/05/31 12:15:54;;;;;;;3.40;1.33;;;21.70;45.80;;;;;;5028847;28;20022;-78
2022/05/31 12:18:29;;;;;;;6.40;1.30;;;21.70;45.40;;;;;;5013574;28;20029;-81
2022/05/31 12:21:21;;;;;;;4.05;1.30;;;21.50;44.60;;;;;;5013199;28;20026;-80
2022/05/31 12:24:00;;;;;;;2.42;1.15;;;21.40;44.20;;;;;;5013238;28;20349;-78
2022/05/31 12:26:50;;;;;;;6.50;1.00;;;21.40;44.60;;;;;;5013058;28;20041;-80
2022/05/31 12:29:29;;;;;;;3.67;2.08;;;21.50;45.00;;;;;;5013113;28;20043;-85
2022/05/31 12:32:20;;;;;;;4.50;1.30;;;21.40;44.80;;;;;;5011583;28;20034;-81
2022/05/31 12:34:46;;;;;;;7.63;2.13;;;21.50;44.10;;;;;;5012376;28;20042;-82
2022/05/31 12:37:14;;;;;;;2.47;1.10;;;21.40;43.90;;;;;;5013397;28;20026;-82
2022/05/31 12:39:46;;;;;;;;;;;21.60;44.50;;;;;;5014826;28;20094;-85
2022/05/31 12:42:15;;;;;;;15.00;8.43;;;21.60;43.90;;;;;;5014667;28;19931;-87
2022/05/31 12:44:46;;;;;;;5.68;2.05;;;21.50;44.00;;;;;;5014741;28;20029;-87
2022/05/31 12:47:31;;;;;;;4.53;1.27;;;21.40;44.70;;;;;;5012319;28;20065;-77
2022/05/31 12:50:04;;;;;;;4.47;1.25;;;21.40;44.90;;;;;;5012864;28;20029;-81
2022/05/31 12:55:13;;;;;;;2.45;0.90;;;21.40;44.70;;;;;;5013352;28;20125;-82
2022/05/31 13:00:34;;;;;;;3.38;1.08;;;21.10;44.50;;;;;;5013511;28;20532;-82
2022/05/31 13:03:22;;;;;;;4.03;1.33;;;21.20;45.00;;;;;;5012980;28;20063;-86
2022/05/31 13:06:07;;;;;;;5.47;1.55;;;21.10;45.40;;;;;;5013054;28;20378;-76
2022/05/31 13:08:59;;;;;;;2.97;1.05;;;21.10;45.40;;;;;;5011708;28;20359;-78
2022/05/31 13:20:13;;;;;;;1.90;1.05;;;21.30;45.60;;;;;;5011643;28;20061;-77
2022/05/31 13:22:45;;;;;;;3.88;1.00;;;21.30;45.80;;;;;;5011853;28;20038;-81
2022/05/31 13:25:22;;;;;;;3.30;1.15;;;21.20;45.50;;;;;;5011790;28;20384;-79
2022/05/31 13:27:54;;;;;;;1.35;1.02;;;20.90;45.50;;;;;;5012496;28;20013;-78
2022/05/31 13:30:23;;;;;;;3.17;1.00;;;20.70;45.40;;;;;;5012405;28;20033;-80
2022/05/31 13:32:50;;;;;;;4.82;1.80;;;20.60;45.60;;;;;;5011725;28;20100;-80
2022/05/31 13:35:26;;;;;;;3.95;1.30;;;20.60;45.80;;;;;;5027510;28;20265;-80
2022/05/31 13:37:58;;;;;;;12.48;5.75;;;20.70;46.00;;;;;;5011918;28;20116;-77
2022/05/31 13:40:49;;;;;;;5.25;2.10;;;20.90;46.20;;;;;;5011676;28;20107;-78
2022/05/31 13:43:26;;;;;;;4.32;1.48;;;20.90;46.10;;;;;;4996998;28;20055;-86
2022/05/31 13:45:58;;;;;;;2.78;1.13;;;21.00;46.40;;;;;;5030446;28;20025;-78
2022/05/31 13:48:26;;;;;;;2.47;0.93;;;21.30;46.00;;;;;;5031748;28;20013;-78
2022/05/31 13:50:57;;;;;;;2.95;1.10;;;21.40;45.50;;;;;;5031013;28;20025;-77
2022/05/31 13:53:24;;;;;;;3.22;1.15;;;21.30;46.00;;;;;;5031627;28;20044;-79
2022/05/31 13:56:00;;;;;;;3.90;1.63;;;21.40;45.70;;;;;;5031247;28;20022;-81